This is the latest recevied weather packets stored in our database for station/object TONGUE. If no packets are shown the sender has not sent any weather packets the latest 10 day(s).
| Time | Temp. | Humidity | Pressure | Rain* | Wind** | Luminosity | Snow |
|---|---|---|---|---|---|---|---|
| 1777752004 | 16.11° C | 71% | 0 hPa | - | - | - | - |
| 1777751403 | 15.56° C | 74% | 0 hPa | - | - | - | - |
| 1777750802 | 16.11° C | 70% | 0 hPa | - | - | - | - |
| 1777750203 | 15.56° C | 71% | 0 hPa | - | - | - | - |
| 1777749603 | 14.44° C | 75% | 0 hPa | - | - | - | - |
| 1777749003 | 15° C | 72% | 0 hPa | - | - | - | - |
| 1777748403 | 14.44° C | 79% | 0 hPa | - | - | - | - |
| 1777747803 | 15° C | 76% | 0 hPa | - | - | - | - |
| 1777747203 | 13.89° C | 78% | 0 hPa | - | - | - | - |
| 1777746602 | 13.89° C | 79% | 0 hPa | - | - | - | - |
| 1777745403 | 13.33° C | 81% | 0 hPa | - | - | - | - |
| 1777744804 | 12.22° C | 88% | 0 hPa | - | - | - | - |
| 1777744203 | 11.67° C | 90% | 0 hPa | - | - | - | - |
| 1777743603 | 12.22° C | 89% | 0 hPa | - | - | - | - |
| 1777743003 | 11.67° C | 89% | 0 hPa | - | - | - | - |
| 1777742403 | 12.22° C | 89% | 0 hPa | - | - | - | - |
| 1777741803 | 11.67° C | 91% | 0 hPa | - | - | - | - |
| 1777741204 | 11.67° C | 94% | 0 hPa | - | - | - | - |
| 1777740603 | 11.11° C | 95% | 0 hPa | - | - | - | - |
| 1777740003 | 11.67° C | 95% | 0 hPa | - | - | - | - |
| 1777739403 | 11.67° C | 96% | 0 hPa | - | - | - | - |
| 1777738803 | 11.11° C | 96% | 0 hPa | - | - | - | - |
| 1777738203 | 11.11° C | 97% | 0 hPa | - | - | - | - |
| 1777737603 | 11.11° C | 98% | 0 hPa | - | - | - | - |
| 1777737003 | 11.11° C | 96% | 0 hPa | - | - | - | - |
* Rain since midnight (hover to see other rain measurements)
** Current wind speed in m/s (hover to see current wind gust speed)